Delta Junction, AK (99737)

10:38 AM AKST on February 25, 2017 (GMT -0900)
Allen Army Air Field | | Change Station
Active Advisory: Winter Weather Advisory

Elev 1276 ft 63.99 °N, 145.72 °W | Updated 45 minutes ago

Mostly Cloudy
Mostly Cloudy
29 °F
Feels Like 20 °F
N
10
Wind Variable Wind from NW

Today
High -- | Low -- °F
--% Chance of Precip.
Yesterday
High -- | Low -- °F
Precip. -- in
Pressure 30.55 in
Visibility 10.0 miles
Clouds Scattered Clouds 3700 ft
Mostly Cloudy 4400 ft
Mostly Cloudy 8000 ft
Windchill 20 °F
Dew Point 21 °F
Humidity 72%
Rainfall 0.01 in
Snow Depth Not available.
8:02 AM 5:50 PM
Waning Crescent, 1% visible
METAR PABI 251853Z 31009KT 10SM SCT037 BKN044 BKN080 M02/M06 A3046 RMK AO2 SLP343 SHSN DSNT NE-E T10171061
Pressure 30.55 in
Visibility 10.0 miles
Clouds Scattered Clouds 3700 ft
Mostly Cloudy 4400 ft
Mostly Cloudy 8000 ft
Windchill 20 °F
Dew Point 21 °F
Humidity 72%
Rainfall 0.01 in
Snow Depth Not available.
8:02 AM 5:50 PM
Waning Crescent, 1% visible
METAR PABI 251853Z 31009KT 10SM SCT037 BKN044 BKN080 M02/M06 A3046 RMK AO2 SLP343 SHSN DSNT NE-E T10171061

Get Your Daily Forecast Email!

Thanks for signing up!

Be on the lookout for a verification email in your inbox.

You'll start receiving the daily forecast at 8 AM.

×

10-Day Weather Forecast

Almanac

Astronomy

Feb. 25, 2017 Rise Set
Actual Time
Civil Twilight
Nautical Twilight
Astronomical Twilight
Moon
Length of Visible Light
Length of Day
Tomorrow will be .
, % of the Moon is Illuminated

Today's Extremes

State Highs State Lows

Community

WunderPhotos

Upload Photos

1,962,540 photos uploaded!

WunderBlog® & News

Nearby

Air Quality

  Air Quality AQ Index Pollutant
Not available.

Snow Depth

Station Depth Elevation

Earthquake Activity

City Distance Mag. Time & Date
Minimum magnitude displayed is 2.5.

Coastal Water Temperatures

Place Temperature

Stations

Nearby Weather Stations

Station Location Temp. Windchill Dew Point Humidity Wind Precip. Elev Updated Type
                   

Watches & Warnings

Winter Weather Advisory
Issued: 9:29 AM AKST Feb. 25, 2017 – National Weather Service

... Winter Weather Advisory now in effect from 6 PM this evening
to 3 PM akst Sunday...

* location... north of Birch Lake.

* Snow... 4 to 7 inches.

* Timing... snow will develop late this afternoon. Snow will be
heavy at times Saturday evening into early Sunday before
tapering off late Sunday morning.

* Impacts... visibility may be greatly reduced. Travel and
outdoor activities will be difficult.

Precautionary/preparedness actions...

A Winter Weather Advisory means that one or more winter weather
hazards are expected to cause travel difficulties.